sensor_id;sensor_type;location;lat;lon;timestamp;pressure;altitude;pressure_sealevel;temperature;humidity
80624;BME280;70269;44.768;9.600;2023-06-22T00:01:58;97844.41;;;18.99;77.66
80624;BME280;70269;44.768;9.600;2023-06-22T00:04:24;97846.28;;;18.93;77.76
80624;BME280;70269;44.768;9.600;2023-06-22T00:06:50;97841.44;;;19.01;77.69
80624;BME280;70269;44.768;9.600;2023-06-22T00:09:16;97839.97;;;18.93;78.10
80624;BME280;70269;44.768;9.600;2023-06-22T00:11:41;97838.56;;;18.90;78.21
80624;BME280;70269;44.768;9.600;2023-06-22T00:14:07;97844.09;;;18.95;77.71
80624;BME280;70269;44.768;9.600;2023-06-22T00:16:32;97849.31;;;18.97;77.49
80624;BME280;70269;44.768;9.600;2023-06-22T00:18:58;97848.50;;;18.96;77.58
80624;BME280;70269;44.768;9.600;2023-06-22T00:21:28;97846.81;;;18.95;77.70
80624;BME280;70269;44.768;9.600;2023-06-22T00:23:54;97837.50;;;18.91;77.42
80624;BME280;70269;44.768;9.600;2023-06-22T00:26:21;97844.88;;;18.91;77.37
80624;BME280;70269;44.768;9.600;2023-06-22T00:28:47;97838.25;;;18.87;77.58
80624;BME280;70269;44.768;9.600;2023-06-22T00:31:13;97843.50;;;18.88;77.47
80624;BME280;70269;44.768;9.600;2023-06-22T00:33:39;97843.16;;;18.85;77.47
80624;BME280;70269;44.768;9.600;2023-06-22T00:36:05;97851.91;;;18.82;77.84
80624;BME280;70269;44.768;9.600;2023-06-22T00:38:33;97843.41;;;18.83;77.25
80624;BME280;70269;44.768;9.600;2023-06-22T00:41:00;97853.13;;;18.96;76.84
80624;BME280;70269;44.768;9.600;2023-06-22T00:43:26;97849.91;;;18.99;76.45
80624;BME280;70269;44.768;9.600;2023-06-22T00:45:51;97847.84;;;18.89;76.64
80624;BME280;70269;44.768;9.600;2023-06-22T00:48:17;97847.03;;;18.89;76.25
80624;BME280;70269;44.768;9.600;2023-06-22T00:50:43;97848.44;;;18.91;75.82
80624;BME280;70269;44.768;9.600;2023-06-22T00:53:09;97855.00;;;18.90;76.28
80624;BME280;70269;44.768;9.600;2023-06-22T00:55:41;97847.56;;;18.86;76.25
80624;BME280;70269;44.768;9.600;2023-06-22T00:58:17;97848.13;;;18.88;75.75
80624;BME280;70269;44.768;9.600;2023-06-22T01:00:48;97846.00;;;18.95;75.27
80624;BME280;70269;44.768;9.600;2023-06-22T01:03:13;97844.97;;;19.01;74.90
80624;BME280;70269;44.768;9.600;2023-06-22T01:05:40;97851.22;;;18.96;75.12
80624;BME280;70269;44.768;9.600;2023-06-22T01:16:14;97840.13;;;18.81;75.12
80624;BME280;70269;44.768;9.600;2023-06-22T01:18:43;97854.34;;;18.83;75.04
80624;BME280;70269;44.768;9.600;2023-06-22T01:21:17;97850.72;;;18.78;74.92
80624;BME280;70269;44.768;9.600;2023-06-22T01:29:17;97852.28;;;18.69;75.12
80624;BME280;70269;44.768;9.600;2023-06-22T01:31:45;97868.16;;;18.72;74.88
80624;BME280;70269;44.768;9.600;2023-06-22T01:34:11;97863.78;;;18.71;74.65
80624;BME280;70269;44.768;9.600;2023-06-22T01:36:38;97866.06;;;18.79;74.68
80624;BME280;70269;44.768;9.600;2023-06-22T01:39:05;97862.75;;;18.77;74.32
80624;BME280;70269;44.768;9.600;2023-06-22T01:41:35;97871.09;;;18.87;73.44
80624;BME280;70269;44.768;9.600;2023-06-22T01:44:02;97860.03;;;18.77;73.10
80624;BME280;70269;44.768;9.600;2023-06-22T01:46:29;97865.44;;;18.72;73.25
80624;BME280;70269;44.768;9.600;2023-06-22T01:48:55;97865.13;;;18.68;73.32
80624;BME280;70269;44.768;9.600;2023-06-22T01:51:21;97861.03;;;18.71;73.65
80624;BME280;70269;44.768;9.600;2023-06-22T01:53:47;97857.16;;;18.67;73.68
80624;BME280;70269;44.768;9.600;2023-06-22T01:56:16;97850.81;;;18.61;74.15
80624;BME280;70269;44.768;9.600;2023-06-22T01:58:49;97848.13;;;18.66;73.42
80624;BME280;70269;44.768;9.600;2023-06-22T02:01:20;97848.06;;;18.61;73.88
80624;BME280;70269;44.768;9.600;2023-06-22T02:03:59;97846.22;;;18.67;73.22
80624;BME280;70269;44.768;9.600;2023-06-22T02:06:33;97841.28;;;18.64;73.07
80624;BME280;70269;44.768;9.600;2023-06-22T02:09:03;97845.88;;;18.41;74.26
80624;BME280;70269;44.768;9.600;2023-06-22T02:11:32;97845.22;;;18.34;74.31
80624;BME280;70269;44.768;9.600;2023-06-22T02:13:58;97849.13;;;18.38;74.50
80624;BME280;70269;44.768;9.600;2023-06-22T02:16:25;97848.25;;;18.33;74.24
80624;BME280;70269;44.768;9.600;2023-06-22T02:18:55;97844.66;;;18.32;74.26
80624;BME280;70269;44.768;9.600;2023-06-22T02:21:22;97854.97;;;18.25;74.77
80624;BME280;70269;44.768;9.600;2023-06-22T02:23:47;97852.22;;;18.25;74.96
80624;BME280;70269;44.768;9.600;2023-06-22T02:26:15;97851.88;;;18.22;75.28
80624;BME280;70269;44.768;9.600;2023-06-22T02:28:41;97850.75;;;18.17;75.93
80624;BME280;70269;44.768;9.600;2023-06-22T02:31:06;97844.13;;;18.13;76.03
80624;BME280;70269;44.768;9.600;2023-06-22T02:33:32;97854.72;;;18.10;75.51
80624;BME280;70269;44.768;9.600;2023-06-22T02:35:57;97850.50;;;18.02;76.14
80624;BME280;70269;44.768;9.600;2023-06-22T02:38:23;97850.03;;;18.05;74.15
80624;BME280;70269;44.768;9.600;2023-06-22T02:40:50;97853.16;;;18.14;74.27
80624;BME280;70269;44.768;9.600;2023-06-22T02:43:16;97854.50;;;18.11;74.08
80624;BME280;70269;44.768;9.600;2023-06-22T02:45:43;97860.19;;;18.10;73.74
80624;BME280;70269;44.768;9.600;2023-06-22T02:48:10;97858.63;;;18.14;73.71
80624;BME280;70269;44.768;9.600;2023-06-22T02:50:36;97853.16;;;18.14;73.33
80624;BME280;70269;44.768;9.600;2023-06-22T02:53:03;97857.53;;;18.15;73.98
80624;BME280;70269;44.768;9.600;2023-06-22T02:55:33;97850.44;;;18.14;72.58
80624;BME280;70269;44.768;9.600;2023-06-22T02:57:58;97849.84;;;18.12;72.92
80624;BME280;70269;44.768;9.600;2023-06-22T03:00:26;97851.56;;;18.18;73.62
80624;BME280;70269;44.768;9.600;2023-06-22T03:02:56;97849.91;;;18.17;72.70
80624;BME280;70269;44.768;9.600;2023-06-22T03:05:23;97848.31;;;18.21;72.96
80624;BME280;70269;44.768;9.600;2023-06-22T03:07:49;97848.00;;;18.17;72.74
80624;BME280;70269;44.768;9.600;2023-06-22T03:10:16;97847.13;;;18.12;73.81
80624;BME280;70269;44.768;9.600;2023-06-22T03:12:43;97846.28;;;18.11;73.25
80624;BME280;70269;44.768;9.600;2023-06-22T03:15:10;97848.59;;;18.03;73.36
80624;BME280;70269;44.768;9.600;2023-06-22T03:17:37;97853.19;;;17.97;73.61
80624;BME280;70269;44.768;9.600;2023-06-22T03:20:08;97852.34;;;17.97;74.07
80624;BME280;70269;44.768;9.600;2023-06-22T03:22:38;97862.38;;;17.91;73.44
80624;BME280;70269;44.768;9.600;2023-06-22T03:25:05;97855.25;;;17.90;72.84
80624;BME280;70269;44.768;9.600;2023-06-22T03:27:37;97855.84;;;17.92;72.92
80624;BME280;70269;44.768;9.600;2023-06-22T03:30:03;97864.38;;;17.96;73.08
80624;BME280;70269;44.768;9.600;2023-06-22T03:32:30;97869.75;;;17.91;72.95
80624;BME280;70269;44.768;9.600;2023-06-22T03:34:57;97859.91;;;17.90;73.30
80624;BME280;70269;44.768;9.600;2023-06-22T03:37:25;97865.38;;;17.90;72.64
80624;BME280;70269;44.768;9.600;2023-06-22T03:39:52;97866.47;;;17.89;72.65
80624;BME280;70269;44.768;9.600;2023-06-22T03:42:18;97863.66;;;17.84;73.11
80624;BME280;70269;44.768;9.600;2023-06-22T03:44:45;97857.91;;;17.85;72.87
80624;BME280;70269;44.768;9.600;2023-06-22T03:47:11;97856.25;;;17.84;72.74
80624;BME280;70269;44.768;9.600;2023-06-22T03:49:37;97854.28;;;17.79;72.85
80624;BME280;70269;44.768;9.600;2023-06-22T03:52:03;97857.59;;;17.82;73.14
80624;BME280;70269;44.768;9.600;2023-06-22T03:54:29;97863.38;;;17.85;72.84
80624;BME280;70269;44.768;9.600;2023-06-22T03:56:56;97852.19;;;17.87;72.96
80624;BME280;70269;44.768;9.600;2023-06-22T03:59:22;97858.66;;;17.81;73.41
80624;BME280;70269;44.768;9.600;2023-06-22T04:01:48;97850.38;;;17.92;72.68
80624;BME280;70269;44.768;9.600;2023-06-22T04:04:14;97855.34;;;17.95;72.45
80624;BME280;70269;44.768;9.600;2023-06-22T04:06:40;97847.47;;;17.99;72.24
80624;BME280;70269;44.768;9.600;2023-06-22T04:09:06;97850.50;;;18.02;71.97
80624;BME280;70269;44.768;9.600;2023-06-22T04:11:31;97848.19;;;18.11;71.79
80624;BME280;70269;44.768;9.600;2023-06-22T04:13:57;97848.84;;;18.18;71.89
80624;BME280;70269;44.768;9.600;2023-06-22T04:16:22;97851.78;;;18.33;70.92
80624;BME280;70269;44.768;9.600;2023-06-22T04:18:48;97849.97;;;18.39;70.94
80624;BME280;70269;44.768;9.600;2023-06-22T04:21:13;97846.75;;;18.47;71.31
80624;BME280;70269;44.768;9.600;2023-06-22T04:23:39;97847.00;;;18.62;70.34
80624;BME280;70269;44.768;9.600;2023-06-22T04:26:05;97841.16;;;18.75;69.22
80624;BME280;70269;44.768;9.600;2023-06-22T04:28:30;97844.38;;;18.94;68.93
80624;BME280;70269;44.768;9.600;2023-06-22T04:31:01;97850.97;;;18.98;68.98
80624;BME280;70269;44.768;9.600;2023-06-22T04:33:27;97843.47;;;19.15;68.81
80624;BME280;70269;44.768;9.600;2023-06-22T04:35:55;97836.31;;;19.36;66.90
80624;BME280;70269;44.768;9.600;2023-06-22T04:38:23;97840.03;;;19.52;66.76
80624;BME280;70269;44.768;9.600;2023-06-22T04:40:49;97830.63;;;19.74;65.23
80624;BME280;70269;44.768;9.600;2023-06-22T04:43:15;97831.53;;;19.85;65.43
80624;BME280;70269;44.768;9.600;2023-06-22T04:45:40;97825.56;;;19.93;65.20
80624;BME280;70269;44.768;9.600;2023-06-22T04:48:06;97832.47;;;20.06;64.26
80624;BME280;70269;44.768;9.600;2023-06-22T04:50:32;97831.09;;;20.03;64.79
80624;BME280;70269;44.768;9.600;2023-06-22T04:52:57;97823.50;;;20.15;64.67
80624;BME280;70269;44.768;9.600;2023-06-22T04:55:23;97828.53;;;20.29;63.35
80624;BME280;70269;44.768;9.600;2023-06-22T04:57:51;97828.53;;;20.29;63.16
80624;BME280;70269;44.768;9.600;2023-06-22T05:00:18;97823.72;;;20.51;62.79
80624;BME280;70269;44.768;9.600;2023-06-22T05:02:45;97826.56;;;20.76;62.13
80624;BME280;70269;44.768;9.600;2023-06-22T05:05:12;97824.13;;;20.90;62.00
80624;BME280;70269;44.768;9.600;2023-06-22T05:07:46;97816.75;;;21.00;61.86
80624;BME280;70269;44.768;9.600;2023-06-22T05:10:16;97818.41;;;21.07;60.99
80624;BME280;70269;44.768;9.600;2023-06-22T05:12:41;97820.03;;;20.97;61.17
80624;BME280;70269;44.768;9.600;2023-06-22T05:15:08;97828.56;;;21.01;60.18
80624;BME280;70269;44.768;9.600;2023-06-22T05:17:34;97814.00;;;21.06;61.13
80624;BME280;70269;44.768;9.600;2023-06-22T05:20:00;97815.00;;;20.74;61.51
80624;BME280;70269;44.768;9.600;2023-06-22T05:22:26;97818.25;;;20.56;62.78
80624;BME280;70269;44.768;9.600;2023-06-22T05:24:51;97814.38;;;20.47;63.63
80624;BME280;70269;44.768;9.600;2023-06-22T05:27:17;97813.72;;;20.92;61.46
80624;BME280;70269;44.768;9.600;2023-06-22T05:29:42;97805.00;;;21.15;60.95
80624;BME280;70269;44.768;9.600;2023-06-22T05:32:08;97809.13;;;21.73;58.64
80624;BME280;70269;44.768;9.600;2023-06-22T05:34:34;97815.72;;;22.18;58.14
80624;BME280;70269;44.768;9.600;2023-06-22T05:37:00;97817.47;;;22.73;55.71
80624;BME280;70269;44.768;9.600;2023-06-22T05:39:25;97830.78;;;23.10;55.45
80624;BME280;70269;44.768;9.600;2023-06-22T05:41:51;97832.31;;;23.31;55.35
80624;BME280;70269;44.768;9.600;2023-06-22T05:44:18;97841.09;;;23.33;55.51
80624;BME280;70269;44.768;9.600;2023-06-22T05:46:44;97842.34;;;23.12;55.64
80624;BME280;70269;44.768;9.600;2023-06-22T05:49:11;97841.09;;;22.89;56.47
80624;BME280;70269;44.768;9.600;2023-06-22T05:51:37;97835.25;;;22.96;57.29
80624;BME280;70269;44.768;9.600;2023-06-22T05:54:02;97829.53;;;22.87;56.39
80624;BME280;70269;44.768;9.600;2023-06-22T05:56:28;97822.16;;;22.73;57.06
80624;BME280;70269;44.768;9.600;2023-06-22T05:58:53;97814.31;;;23.00;56.79
80624;BME280;70269;44.768;9.600;2023-06-22T06:01:20;97824.88;;;23.27;55.75
80624;BME280;70269;44.768;9.600;2023-06-22T06:03:46;97820.09;;;23.48;54.92
80624;BME280;70269;44.768;9.600;2023-06-22T06:06:11;97825.41;;;23.73;54.39
80624;BME280;70269;44.768;9.600;2023-06-22T06:08:38;97828.63;;;23.85;54.83
80624;BME280;70269;44.768;9.600;2023-06-22T06:11:04;97828.56;;;23.90;55.44
80624;BME280;70269;44.768;9.600;2023-06-22T06:13:30;97829.94;;;24.22;54.32
80624;BME280;70269;44.768;9.600;2023-06-22T06:15:56;97846.44;;;24.55;53.77
80624;BME280;70269;44.768;9.600;2023-06-22T06:18:22;97846.94;;;24.57;54.73
80624;BME280;70269;44.768;9.600;2023-06-22T06:20:48;97858.72;;;24.68;53.56
80624;BME280;70269;44.768;9.600;2023-06-22T06:23:14;97850.38;;;24.49;53.77
80624;BME280;70269;44.768;9.600;2023-06-22T06:25:40;97855.06;;;24.49;54.57
80624;BME280;70269;44.768;9.600;2023-06-22T06:28:05;97864.66;;;24.80;53.71
80624;BME280;70269;44.768;9.600;2023-06-22T06:30:31;97862.94;;;25.27;52.16
80624;BME280;70269;44.768;9.600;2023-06-22T06:32:56;97863.03;;;25.22;52.22
80624;BME280;70269;44.768;9.600;2023-06-22T06:35:22;97863.94;;;25.55;51.36
80624;BME280;70269;44.768;9.600;2023-06-22T06:37:49;97860.72;;;25.48;53.37
80624;BME280;70269;44.768;9.600;2023-06-22T06:40:16;97859.19;;;25.55;52.44
80624;BME280;70269;44.768;9.600;2023-06-22T06:42:44;97854.50;;;25.74;50.13
80624;BME280;70269;44.768;9.600;2023-06-22T06:45:19;97859.81;;;25.90;48.93
80624;BME280;70269;44.768;9.600;2023-06-22T06:47:46;97856.50;;;25.88;48.84
80624;BME280;70269;44.768;9.600;2023-06-22T06:50:12;97848.31;;;26.15;47.76
80624;BME280;70269;44.768;9.600;2023-06-22T06:52:37;97840.13;;;26.24;46.69
80624;BME280;70269;44.768;9.600;2023-06-22T06:55:03;97835.56;;;26.46;48.18
80624;BME280;70269;44.768;9.600;2023-06-22T06:57:37;97851.16;;;26.10;50.74
80624;BME280;70269;44.768;9.600;2023-06-22T07:00:06;97851.16;;;25.77;51.16
80624;BME280;70269;44.768;9.600;2023-06-22T07:02:43;97845.47;;;25.69;52.97
80624;BME280;70269;44.768;9.600;2023-06-22T07:05:10;97828.91;;;26.15;53.04
80624;BME280;70269;44.768;9.600;2023-06-22T07:07:36;97833.81;;;26.04;53.15
80624;BME280;70269;44.768;9.600;2023-06-22T07:10:02;97822.31;;;26.11;51.97
80624;BME280;70269;44.768;9.600;2023-06-22T07:12:28;97816.41;;;26.04;51.08
80624;BME280;70269;44.768;9.600;2023-06-22T07:14:56;97816.09;;;25.54;54.77
80624;BME280;70269;44.768;9.600;2023-06-22T07:17:25;97817.59;;;25.98;52.08
80624;BME280;70269;44.768;9.600;2023-06-22T07:19:51;97819.75;;;26.33;50.37
80624;BME280;70269;44.768;9.600;2023-06-22T07:22:16;97830.75;;;26.52;50.45
80624;BME280;70269;44.768;9.600;2023-06-22T07:24:42;97829.50;;;26.99;50.89
80624;BME280;70269;44.768;9.600;2023-06-22T07:27:08;97833.31;;;27.03;49.72
80624;BME280;70269;44.768;9.600;2023-06-22T07:29:36;97828.81;;;26.93;51.77
80624;BME280;70269;44.768;9.600;2023-06-22T07:32:02;97832.47;;;27.16;50.30
80624;BME280;70269;44.768;9.600;2023-06-22T07:34:30;97835.97;;;27.22;48.99
80624;BME280;70269;44.768;9.600;2023-06-22T07:36:55;97834.94;;;27.04;52.23
80624;BME280;70269;44.768;9.600;2023-06-22T07:39:21;97835.34;;;26.56;49.21
80624;BME280;70269;44.768;9.600;2023-06-22T07:41:51;97822.63;;;26.69;54.03
80624;BME280;70269;44.768;9.600;2023-06-22T07:44:16;97799.94;;;26.67;53.15
80624;BME280;70269;44.768;9.600;2023-06-22T07:46:42;97803.03;;;26.52;53.66
80624;BME280;70269;44.768;9.600;2023-06-22T07:49:07;97807.78;;;26.19;54.77
80624;BME280;70269;44.768;9.600;2023-06-22T07:51:34;97799.97;;;26.40;53.94
80624;BME280;70269;44.768;9.600;2023-06-22T07:53:59;97803.25;;;26.69;55.92
80624;BME280;70269;44.768;9.600;2023-06-22T07:56:25;97794.06;;;27.10;55.58
80624;BME280;70269;44.768;9.600;2023-06-22T07:58:50;97807.81;;;27.51;54.93
80624;BME280;70269;44.768;9.600;2023-06-22T08:01:16;97812.53;;;27.64;51.01
80624;BME280;70269;44.768;9.600;2023-06-22T08:03:42;97807.47;;;27.66;48.28
80624;BME280;70269;44.768;9.600;2023-06-22T08:06:09;97801.22;;;27.60;46.51
80624;BME280;70269;44.768;9.600;2023-06-22T08:08:35;97805.94;;;28.27;47.52
80624;BME280;70269;44.768;9.600;2023-06-22T08:11:01;97801.56;;;28.34;48.65
80624;BME280;70269;44.768;9.600;2023-06-22T08:13:26;97788.34;;;28.40;49.24
80624;BME280;70269;44.768;9.600;2023-06-22T08:15:52;97784.91;;;27.81;45.61
80624;BME280;70269;44.768;9.600;2023-06-22T08:18:17;97773.81;;;27.59;43.25
80624;BME280;70269;44.768;9.600;2023-06-22T08:20:43;97774.53;;;27.95;46.19
80624;BME280;70269;44.768;9.600;2023-06-22T08:23:08;97768.16;;;27.95;47.20
80624;BME280;70269;44.768;9.600;2023-06-22T08:25:35;97764.19;;;28.49;48.47
80624;BME280;70269;44.768;9.600;2023-06-22T08:28:04;97762.75;;;27.90;44.97
80624;BME280;70269;44.768;9.600;2023-06-22T08:30:29;97760.66;;;28.66;51.68
80624;BME280;70269;44.768;9.600;2023-06-22T08:32:55;97771.34;;;28.81;47.65
80624;BME280;70269;44.768;9.600;2023-06-22T08:35:24;97765.56;;;28.69;43.03
80624;BME280;70269;44.768;9.600;2023-06-22T08:37:50;97756.84;;;28.44;43.35
80624;BME280;70269;44.768;9.600;2023-06-22T08:40:21;97756.72;;;28.19;43.52
80624;BME280;70269;44.768;9.600;2023-06-22T08:42:47;97759.53;;;28.27;46.28
80624;BME280;70269;44.768;9.600;2023-06-22T08:45:13;97769.06;;;28.83;46.29
80624;BME280;70269;44.768;9.600;2023-06-22T08:47:40;97764.97;;;28.80;45.42
80624;BME280;70269;44.768;9.600;2023-06-22T08:50:07;97763.06;;;28.50;44.33
80624;BME280;70269;44.768;9.600;2023-06-22T08:52:34;97772.38;;;28.14;44.75
80624;BME280;70269;44.768;9.600;2023-06-22T08:54:59;97787.63;;;28.26;47.44
80624;BME280;70269;44.768;9.600;2023-06-22T08:57:25;97785.44;;;28.45;46.45
80624;BME280;70269;44.768;9.600;2023-06-22T08:59:51;97786.75;;;28.16;45.59
80624;BME280;70269;44.768;9.600;2023-06-22T09:02:23;97791.06;;;28.62;46.43
80624;BME280;70269;44.768;9.600;2023-06-22T09:04:49;97785.66;;;28.66;45.91
80624;BME280;70269;44.768;9.600;2023-06-22T09:07:14;97792.13;;;28.44;48.38
80624;BME280;70269;44.768;9.600;2023-06-22T09:09:47;97792.66;;;28.54;46.69
80624;BME280;70269;44.768;9.600;2023-06-22T09:12:13;97791.28;;;28.74;46.83
80624;BME280;70269;44.768;9.600;2023-06-22T09:14:38;97786.72;;;28.39;46.55
80624;BME280;70269;44.768;9.600;2023-06-22T09:17:04;97786.66;;;28.70;46.71
80624;BME280;70269;44.768;9.600;2023-06-22T09:19:29;97782.88;;;29.31;45.31
80624;BME280;70269;44.768;9.600;2023-06-22T09:21:55;97774.78;;;28.38;46.56
80624;BME280;70269;44.768;9.600;2023-06-22T09:24:20;97773.13;;;28.06;47.06
80624;BME280;70269;44.768;9.600;2023-06-22T09:26:46;97779.91;;;28.14;44.95
80624;BME280;70269;44.768;9.600;2023-06-22T09:29:11;97779.25;;;28.17;45.98
80624;BME280;70269;44.768;9.600;2023-06-22T09:31:37;97778.69;;;28.77;46.41
80624;BME280;70269;44.768;9.600;2023-06-22T09:34:02;97770.75;;;29.18;43.44
80624;BME280;70269;44.768;9.600;2023-06-22T09:36:28;97775.03;;;29.24;45.72
80624;BME280;70269;44.768;9.600;2023-06-22T09:38:53;97780.09;;;29.31;42.65
80624;BME280;70269;44.768;9.600;2023-06-22T09:41:24;97777.97;;;29.28;46.08
80624;BME280;70269;44.768;9.600;2023-06-22T09:43:50;97767.94;;;28.92;46.15
80624;BME280;70269;44.768;9.600;2023-06-22T09:46:16;97766.66;;;29.16;46.31
80624;BME280;70269;44.768;9.600;2023-06-22T09:48:42;97757.50;;;29.32;44.09
80624;BME280;70269;44.768;9.600;2023-06-22T09:51:07;97755.44;;;28.73;43.81
80624;BME280;70269;44.768;9.600;2023-06-22T09:53:33;97745.69;;;28.75;44.76
80624;BME280;70269;44.768;9.600;2023-06-22T09:56:00;97743.44;;;29.29;44.09
80624;BME280;70269;44.768;9.600;2023-06-22T09:58:26;97743.28;;;29.17;44.00
80624;BME280;70269;44.768;9.600;2023-06-22T10:00:51;97737.53;;;29.22;44.39
80624;BME280;70269;44.768;9.600;2023-06-22T10:03:18;97729.69;;;29.58;42.79
80624;BME280;70269;44.768;9.600;2023-06-22T10:05:43;97714.34;;;29.35;43.61
80624;BME280;70269;44.768;9.600;2023-06-22T10:08:09;97729.03;;;29.10;46.06
80624;BME280;70269;44.768;9.600;2023-06-22T10:10:35;97723.78;;;29.17;44.78
80624;BME280;70269;44.768;9.600;2023-06-22T10:13:10;97711.34;;;29.57;42.69
80624;BME280;70269;44.768;9.600;2023-06-22T10:15:36;97723.66;;;29.56;42.86
80624;BME280;70269;44.768;9.600;2023-06-22T10:18:02;97714.47;;;29.39;43.91
80624;BME280;70269;44.768;9.600;2023-06-22T10:20:27;97719.53;;;28.93;44.74
80624;BME280;70269;44.768;9.600;2023-06-22T10:23:05;97709.88;;;29.17;45.80
80624;BME280;70269;44.768;9.600;2023-06-22T10:25:39;97715.94;;;29.53;44.97
80624;BME280;70269;44.768;9.600;2023-06-22T10:28:05;97706.78;;;29.61;42.42
80624;BME280;70269;44.768;9.600;2023-06-22T10:30:30;97704.59;;;29.75;42.71
80624;BME280;70269;44.768;9.600;2023-06-22T10:32:56;97697.25;;;29.71;44.01
80624;BME280;70269;44.768;9.600;2023-06-22T10:35:21;97672.91;;;29.25;44.38
80624;BME280;70269;44.768;9.600;2023-06-22T10:37:48;97676.00;;;29.32;44.24
80624;BME280;70269;44.768;9.600;2023-06-22T10:40:16;97680.03;;;29.69;44.38
80624;BME280;70269;44.768;9.600;2023-06-22T10:42:42;97675.69;;;29.42;45.79
80624;BME280;70269;44.768;9.600;2023-06-22T10:45:08;97664.38;;;29.56;42.50
80624;BME280;70269;44.768;9.600;2023-06-22T10:47:34;97666.13;;;29.69;44.06
80624;BME280;70269;44.768;9.600;2023-06-22T10:50:01;97663.44;;;29.90;43.11
80624;BME280;70269;44.768;9.600;2023-06-22T10:52:26;97672.50;;;29.78;44.27
80624;BME280;70269;44.768;9.600;2023-06-22T10:54:52;97673.28;;;29.96;44.00
80624;BME280;70269;44.768;9.600;2023-06-22T10:57:18;97671.53;;;30.21;42.73
80624;BME280;70269;44.768;9.600;2023-06-22T10:59:43;97665.41;;;29.98;42.38
80624;BME280;70269;44.768;9.600;2023-06-22T11:02:09;97659.84;;;29.89;43.63
80624;BME280;70269;44.768;9.600;2023-06-22T11:04:34;97650.44;;;29.64;43.85
80624;BME280;70269;44.768;9.600;2023-06-22T11:07:00;97640.69;;;29.88;44.42
80624;BME280;70269;44.768;9.600;2023-06-22T11:09:26;97643.69;;;29.74;43.24
80624;BME280;70269;44.768;9.600;2023-06-22T11:11:52;97637.63;;;29.72;42.96
80624;BME280;70269;44.768;9.600;2023-06-22T11:14:21;97643.13;;;29.98;43.23
80624;BME280;70269;44.768;9.600;2023-06-22T11:16:47;97638.16;;;29.65;42.69
80624;BME280;70269;44.768;9.600;2023-06-22T11:19:13;97629.28;;;29.72;43.14
80624;BME280;70269;44.768;9.600;2023-06-22T11:21:38;97622.06;;;29.80;41.90
80624;BME280;70269;44.768;9.600;2023-06-22T11:24:04;97623.09;;;29.66;42.79
80624;BME280;70269;44.768;9.600;2023-06-22T11:26:30;97622.34;;;29.87;44.17
80624;BME280;70269;44.768;9.600;2023-06-22T11:28:57;97611.56;;;29.76;42.19
80624;BME280;70269;44.768;9.600;2023-06-22T11:31:22;97617.63;;;29.87;44.61
80624;BME280;70269;44.768;9.600;2023-06-22T11:33:48;97608.44;;;29.87;43.43
80624;BME280;70269;44.768;9.600;2023-06-22T11:36:14;97589.06;;;29.99;44.11
80624;BME280;70269;44.768;9.600;2023-06-22T11:38:41;97601.88;;;29.83;42.14
80624;BME280;70269;44.768;9.600;2023-06-22T11:41:08;97600.75;;;29.92;42.54
80624;BME280;70269;44.768;9.600;2023-06-22T11:43:33;97601.13;;;29.73;42.54
80624;BME280;70269;44.768;9.600;2023-06-22T11:46:03;97599.97;;;29.74;43.07
80624;BME280;70269;44.768;9.600;2023-06-22T11:48:29;97597.84;;;29.71;42.83
80624;BME280;70269;44.768;9.600;2023-06-22T11:50:54;97601.59;;;29.75;43.76
80624;BME280;70269;44.768;9.600;2023-06-22T11:53:21;97599.59;;;29.85;42.46
80624;BME280;70269;44.768;9.600;2023-06-22T11:55:47;97603.75;;;30.08;44.14
80624;BME280;70269;44.768;9.600;2023-06-22T11:58:13;97597.53;;;30.11;42.27
80624;BME280;70269;44.768;9.600;2023-06-22T12:00:38;97597.66;;;30.14;42.16
80624;BME280;70269;44.768;9.600;2023-06-22T12:03:04;97588.56;;;30.05;42.94
80624;BME280;70269;44.768;9.600;2023-06-22T12:05:29;97580.41;;;30.21;44.08
80624;BME280;70269;44.768;9.600;2023-06-22T12:07:55;97581.28;;;30.13;43.24
80624;BME280;70269;44.768;9.600;2023-06-22T12:10:22;97582.78;;;30.31;42.81
80624;BME280;70269;44.768;9.600;2023-06-22T12:12:48;97583.09;;;30.38;43.65
80624;BME280;70269;44.768;9.600;2023-06-22T12:15:13;97577.75;;;30.25;43.23
80624;BME280;70269;44.768;9.600;2023-06-22T12:17:40;97577.06;;;30.36;42.10
80624;BME280;70269;44.768;9.600;2023-06-22T12:20:06;97579.06;;;30.27;42.08
80624;BME280;70269;44.768;9.600;2023-06-22T12:22:32;97575.13;;;30.28;42.17
80624;BME280;70269;44.768;9.600;2023-06-22T12:24:58;97571.69;;;30.02;43.33
80624;BME280;70269;44.768;9.600;2023-06-22T12:27:24;97576.69;;;30.17;44.08
80624;BME280;70269;44.768;9.600;2023-06-22T12:29:50;97578.94;;;30.24;42.56
80624;BME280;70269;44.768;9.600;2023-06-22T12:32:15;97575.13;;;30.28;43.37
80624;BME280;70269;44.768;9.600;2023-06-22T12:34:42;97581.13;;;30.39;44.00
80624;BME280;70269;44.768;9.600;2023-06-22T12:37:08;97567.25;;;30.30;42.63
80624;BME280;70269;44.768;9.600;2023-06-22T12:39:33;97568.69;;;30.36;43.05
80624;BME280;70269;44.768;9.600;2023-06-22T12:41:59;97575.13;;;30.28;42.62
80624;BME280;70269;44.768;9.600;2023-06-22T12:44:24;97573.81;;;30.05;44.04
80624;BME280;70269;44.768;9.600;2023-06-22T12:46:50;97562.66;;;30.05;44.70
80624;BME280;70269;44.768;9.600;2023-06-22T12:49:15;97568.66;;;30.15;44.56
80624;BME280;70269;44.768;9.600;2023-06-22T12:51:42;97568.94;;;30.23;43.44
80624;BME280;70269;44.768;9.600;2023-06-22T12:54:08;97566.00;;;30.19;45.05
80624;BME280;70269;44.768;9.600;2023-06-22T12:56:34;97568.59;;;29.95;43.48
80624;BME280;70269;44.768;9.600;2023-06-22T12:58:59;97566.94;;;30.02;44.80
80624;BME280;70269;44.768;9.600;2023-06-22T13:01:28;97566.84;;;29.82;45.95
80624;BME280;70269;44.768;9.600;2023-06-22T13:03:54;97564.66;;;29.96;45.45
80624;BME280;70269;44.768;9.600;2023-06-22T13:06:19;97571.41;;;29.86;45.68
80624;BME280;70269;44.768;9.600;2023-06-22T13:08:45;97572.22;;;29.95;45.34
80624;BME280;70269;44.768;9.600;2023-06-22T13:11:10;97581.09;;;30.18;45.24